Terminal Aerodrome Forecast
Issued by NWS

Home | Current Version | Previous Version | Text Only | Print | Product List | Glossary On
Versions: 1 2 3 4 5 6 7 8 9 10 11 12 13 14 15 16 17
596
FTUS45 KRIW 010532
TAFCOD
TAF
KCOD 010532Z 0106/0206 34010KT P6SM VCSH SCT050 BKN070
     FM011100 33008KT P6SM SCT060 BKN080
     FM011700 29010G18KT P6SM SCT060 BKN080
     FM020100 25008KT P6SM SCT060 BKN080
      AMD LTD TO CLD VIS AND WIND=

USA.gov is the U.S. government's official web portal to all federal, state and local government web resources and services.